Time;durP1;ratioP1;P1;durP2;ratioP2;P2;SDS_P1;SDS_P2;PMS_P1;PMS_P2;Temp;Humidity;BMP_temperature;BMP_pressure;BME280_temperature;BME280_humidity;BME280_pressure;Samples;Min_cycle;Max_cycle;Signal;HPM_P1;HPM_P2
2022/12/09 00:00:04;;;;;;;32.85;19.77;;;-4.00;99.90;;;;;;5050510;27;20037;-52
2022/12/09 00:02:30;;;;;;;36.00;20.38;;;-4.00;99.90;;;;;;5037490;28;20528;-50
2022/12/09 00:04:55;;;;;;;33.55;21.48;;;-4.00;99.90;;;;;;5050471;28;20029;-53
2022/12/09 00:07:21;;;;;;;30.83;20.48;;;-4.00;99.90;;;;;;5051254;28;20029;-54
2022/12/09 00:09:47;;;;;;;36.25;21.27;;;-4.00;99.90;;;;;;5038886;28;20049;-53
2022/12/09 00:12:12;;;;;;;33.03;20.27;;;-3.90;99.90;;;;;;5034709;28;20044;-52
2022/12/09 00:14:38;;;;;;;36.65;21.17;;;-3.80;99.90;;;;;;5049272;28;20051;-52
2022/12/09 00:17:03;;;;;;;29.58;19.73;;;-3.80;99.90;;;;;;5050647;28;20025;-50
2022/12/09 00:19:29;;;;;;;36.40;21.42;;;-3.80;99.90;;;;;;5041333;28;20033;-52
2022/12/09 00:21:55;;;;;;;37.10;21.05;;;-3.70;99.90;;;;;;5032305;28;20052;-54
2022/12/09 00:24:20;;;;;;;34.75;22.40;;;-3.70;99.90;;;;;;5043940;28;20033;-53
2022/12/09 00:26:46;;;;;;;29.58;20.55;;;-3.70;99.90;;;;;;5030915;28;20726;-50
2022/12/09 00:29:12;;;;;;;31.13;20.80;;;-3.60;99.90;;;;;;5030476;28;20068;-51
2022/12/09 00:31:38;;;;;;;34.00;21.83;;;-3.60;99.90;;;;;;5029849;28;20038;-55
2022/12/09 00:34:06;;;;;;;33.70;21.40;;;-3.50;99.90;;;;;;5033198;28;20079;-54
2022/12/09 00:36:41;;;;;;;28.15;19.10;;;-3.50;99.90;;;;;;5043807;28;20430;-55
2022/12/09 00:39:08;;;;;;;32.35;20.77;;;-3.50;99.90;;;;;;5047190;27;20457;-52
2022/12/09 00:41:33;;;;;;;32.40;20.40;;;-3.60;99.90;;;;;;5030699;28;20128;-54
2022/12/09 00:43:59;;;;;;;30.73;19.63;;;-3.60;99.90;;;;;;5026667;28;20543;-53
2022/12/09 00:46:25;;;;;;;35.88;20.30;;;-3.50;99.90;;;;;;5049499;28;20112;-51
2022/12/09 00:48:50;;;;;;;27.45;18.10;;;-3.50;99.90;;;;;;5049307;27;20032;-51
2022/12/09 00:51:20;;;;;;;32.63;20.45;;;-3.40;99.90;;;;;;5037799;28;20078;-56
2022/12/09 00:53:46;;;;;;;27.73;20.13;;;-3.40;99.90;;;;;;5041733;28;20046;-52
2022/12/09 00:56:13;;;;;;;26.70;18.95;;;-3.40;99.90;;;;;;5042031;28;20029;-51
2022/12/09 00:58:38;;;;;;;30.50;21.35;;;-3.40;99.90;;;;;;5031225;27;20039;-53
2022/12/09 01:01:04;;;;;;;35.25;21.70;;;-3.40;99.90;;;;;;5049302;28;20029;-54
2022/12/09 01:03:30;;;;;;;32.42;20.13;;;-3.50;99.90;;;;;;5061629;27;20033;-51
2022/12/09 01:05:56;;;;;;;30.17;20.23;;;-3.50;99.90;;;;;;5071816;27;20034;-53
2022/12/09 01:08:21;;;;;;;35.75;21.58;;;-3.50;99.90;;;;;;5041843;28;20095;-54
2022/12/09 01:10:47;;;;;;;34.83;21.88;;;-3.40;99.90;;;;;;5049775;28;20379;-53
2022/12/09 01:13:14;;;;;;;34.00;21.13;;;-3.40;99.90;;;;;;5042341;28;21434;-53
2022/12/09 01:15:41;;;;;;;29.13;19.83;;;-3.40;99.90;;;;;;5042412;27;20065;-52
2022/12/09 01:18:07;;;;;;;28.50;19.30;;;-3.40;99.90;;;;;;5049708;28;20411;-53
2022/12/09 01:20:33;;;;;;;29.70;20.33;;;-3.50;99.90;;;;;;5031396;28;20037;-52
2022/12/09 01:23:00;;;;;;;27.73;20.02;;;-3.40;99.90;;;;;;5049731;27;20023;-51
2022/12/09 01:25:25;;;;;;;35.03;20.55;;;-3.40;99.90;;;;;;5039779;28;20041;-53
2022/12/09 01:27:51;;;;;;;30.52;19.90;;;-3.30;99.90;;;;;;5043465;27;20025;-51
2022/12/09 01:30:17;;;;;;;30.98;20.77;;;-3.30;99.90;;;;;;5049355;28;20070;-51
2022/12/09 01:32:42;;;;;;;27.73;19.50;;;-3.20;99.90;;;;;;5049893;27;20485;-50
2022/12/09 01:35:08;;;;;;;34.17;20.58;;;-3.20;99.90;;;;;;5037135;28;20040;-49
2022/12/09 01:37:35;;;;;;;27.40;19.48;;;-3.20;99.90;;;;;;5049750;27;20025;-54
2022/12/09 01:40:03;;;;;;;34.42;19.63;;;-3.10;99.90;;;;;;5037675;28;20116;-53
2022/12/09 01:42:29;;;;;;;28.13;18.50;;;-3.10;99.90;;;;;;5029501;28;20112;-50
2022/12/09 01:45:29;;;;;;;34.30;20.85;;;-3.00;99.90;;;;;;5030558;28;20109;-51
2022/12/09 01:48:07;;;;;;;30.65;20.20;;;-3.10;99.90;;;;;;5030358;28;20036;-52
2022/12/09 01:50:34;;;;;;;30.58;19.27;;;-3.10;99.90;;;;;;5032928;28;20052;-53
2022/12/09 01:53:00;;;;;;;31.45;19.85;;;-3.00;99.90;;;;;;5049318;28;20393;-51
2022/12/09 01:55:26;;;;;;;32.42;19.58;;;-3.00;99.90;;;;;;5039843;27;20045;-51
2022/12/09 01:57:52;;;;;;;31.92;19.80;;;-3.00;99.90;;;;;;5029344;28;20033;-52
2022/12/09 02:00:18;;;;;;;27.05;16.98;;;-3.00;99.90;;;;;;5040245;28;20021;-51
2022/12/09 02:02:47;;;;;;;29.35;19.38;;;-2.90;99.90;;;;;;5049320;27;20032;-50
2022/12/09 02:05:13;;;;;;;28.50;18.52;;;-2.90;99.90;;;;;;5040061;27;20032;-52
2022/12/09 02:07:39;;;;;;;30.17;19.08;;;-2.90;99.90;;;;;;5047594;28;20040;-51
2022/12/09 02:10:10;;;;;;;33.33;20.33;;;-2.90;99.90;;;;;;5033535;28;20030;-53
2022/12/09 02:12:55;;;;;;;27.88;20.23;;;-2.80;99.90;;;;;;5029960;28;20053;-52
2022/12/09 02:15:36;;;;;;;29.48;20.00;;;-2.80;99.90;;;;;;5035395;28;20028;-55
2022/12/09 02:18:24;;;;;;;30.42;19.38;;;-2.70;99.90;;;;;;5047647;28;20025;-55
2022/12/09 02:21:11;;;;;;;31.52;19.65;;;-2.60;99.90;;;;;;5047742;28;20455;-52
2022/12/09 02:23:54;;;;;;;28.85;18.35;;;-2.50;99.90;;;;;;5046556;27;20082;-48
2022/12/09 02:26:41;;;;;;;32.50;19.98;;;-2.40;99.90;;;;;;5044525;27;20033;-55
2022/12/09 02:29:18;;;;;;;35.45;20.92;;;-2.40;99.90;;;;;;5046979;28;20025;-55
2022/12/09 02:31:59;;;;;;;35.97;20.83;;;-2.30;99.90;;;;;;5045319;28;20033;-51
2022/12/09 02:34:30;;;;;;;39.72;23.92;;;-2.10;99.90;;;;;;5047047;28;20408;-52
2022/12/09 02:37:07;;;;;;;50.38;25.50;;;-1.90;99.90;;;;;;5028782;28;20064;-53
2022/12/09 02:39:45;;;;;;;48.10;29.42;;;-1.70;99.90;;;;;;5033654;28;20048;-49
2022/12/09 02:42:15;;;;;;;58.33;31.10;;;-1.60;99.90;;;;;;5047874;27;20028;-52
2022/12/09 02:44:44;;;;;;;49.42;28.00;;;-1.40;99.90;;;;;;5045253;28;20395;-51
2022/12/09 02:47:13;;;;;;;46.78;28.63;;;-1.30;99.90;;;;;;5028533;28;20030;-53
2022/12/09 02:49:41;;;;;;;48.25;27.20;;;-1.30;99.90;;;;;;5027399;28;20451;-54
2022/12/09 02:52:08;;;;;;;53.28;28.95;;;-1.20;99.90;;;;;;5034939;28;20063;-53
2022/12/09 02:54:36;;;;;;;47.60;28.25;;;-1.20;99.90;;;;;;5046175;28;20497;-51
2022/12/09 02:57:12;;;;;;;47.42;27.42;;;-1.20;99.90;;;;;;5028448;28;20036;-51
2022/12/09 02:59:37;;;;;;;43.90;27.98;;;-1.10;99.90;;;;;;5028641;28;20064;-51
2022/12/09 03:02:24;;;;;;;45.90;28.27;;;-1.10;99.90;;;;;;5041974;27;20465;-50
2022/12/09 03:05:24;;;;;;;44.85;28.27;;;-1.00;99.90;;;;;;5045382;27;20037;-54
2022/12/09 03:08:20;;;;;;;47.13;27.63;;;-1.00;99.90;;;;;;5028572;28;20034;-54
2022/12/09 03:11:04;;;;;;;48.10;26.70;;;-1.00;99.90;;;;;;5028336;28;20034;-55
2022/12/09 03:13:34;;;;;;;39.55;26.35;;;-1.00;99.90;;;;;;5029541;28;20125;-52
2022/12/09 03:16:29;;;;;;;44.63;26.52;;;-1.00;99.90;;;;;;5028345;28;20589;-51
2022/12/09 03:19:04;;;;;;;46.22;26.92;;;-1.00;99.90;;;;;;5028024;28;20030;-52
2022/12/09 03:21:33;;;;;;;47.70;26.85;;;-1.00;99.90;;;;;;5028475;28;20091;-52
2022/12/09 03:24:03;;;;;;;43.80;26.13;;;-1.00;99.90;;;;;;5042532;27;20021;-53
2022/12/09 03:26:32;;;;;;;44.92;26.55;;;-1.00;99.90;;;;;;5048254;28;20488;-51
2022/12/09 03:29:01;;;;;;;46.80;29.02;;;-1.00;99.90;;;;;;5047629;27;20094;-53
2022/12/09 03:31:29;;;;;;;48.65;29.92;;;-1.00;99.90;;;;;;5046136;28;20036;-51
2022/12/09 03:34:00;;;;;;;48.75;30.70;;;-0.90;99.90;;;;;;5045383;28;20341;-51
2022/12/09 03:36:31;;;;;;;64.47;34.47;;;-0.90;99.90;;;;;;5051501;28;20444;-50
2022/12/09 03:38:59;;;;;;;56.30;32.75;;;-0.80;99.90;;;;;;5049543;27;20068;-57
2022/12/09 03:41:30;;;;;;;58.75;34.17;;;-0.80;99.90;;;;;;5033925;28;20053;-50
2022/12/09 03:44:06;;;;;;;60.95;33.92;;;-0.80;99.90;;;;;;5049550;27;20025;-53
2022/12/09 03:46:32;;;;;;;59.28;34.10;;;-0.80;99.90;;;;;;5051333;28;20108;-55
2022/12/09 03:49:07;;;;;;;62.83;35.33;;;-0.70;99.90;;;;;;5049527;28;20523;-54
2022/12/09 03:51:38;;;;;;;65.80;37.40;;;-0.70;99.90;;;;;;5048973;28;20081;-53
2022/12/09 03:54:16;;;;;;;62.03;35.85;;;-0.70;99.90;;;;;;5036827;28;20028;-55
2022/12/09 03:56:47;;;;;;;69.20;36.92;;;-0.70;99.90;;;;;;5049677;28;20029;-53
2022/12/09 03:59:14;;;;;;;71.25;35.83;;;-0.70;99.90;;;;;;5050831;28;20021;-51
2022/12/09 04:01:42;;;;;;;65.72;35.05;;;-0.70;99.90;;;;;;5046445;28;20497;-54
2022/12/09 04:04:09;;;;;;;65.18;36.20;;;-0.60;99.90;;;;;;5037422;28;20048;-53
2022/12/09 04:06:35;;;;;;;71.82;38.13;;;-0.70;99.90;;;;;;5049446;28;20017;-54
2022/12/09 04:09:02;;;;;;;67.50;37.97;;;-0.70;99.90;;;;;;5045817;28;20052;-51
2022/12/09 04:11:28;;;;;;;68.25;38.90;;;-0.60;99.90;;;;;;5031435;28;20045;-52
2022/12/09 04:13:53;;;;;;;85.10;37.45;;;-0.60;99.90;;;;;;5048799;27;20495;-52
2022/12/09 04:16:19;;;;;;;77.78;36.45;;;-0.60;99.90;;;;;;5051093;28;20025;-54
2022/12/09 04:18:45;;;;;;;117.18;36.33;;;-0.70;99.90;;;;;;5050385;28;20074;-54
2022/12/09 04:21:12;;;;;;;72.97;34.55;;;-0.70;99.90;;;;;;5050691;27;20021;-53
2022/12/09 04:23:37;;;;;;;118.18;34.80;;;-0.80;99.90;;;;;;5032187;28;20517;-55
2022/12/09 04:26:04;;;;;;;172.40;38.10;;;-0.80;99.90;;;;;;5030771;28;20030;-52
2022/12/09 04:28:29;;;;;;;96.90;34.25;;;-0.80;99.90;;;;;;5030682;28;20018;-51
2022/12/09 04:30:55;;;;;;;149.73;36.00;;;-0.80;99.90;;;;;;5030673;28;20025;-54
2022/12/09 04:33:21;;;;;;;103.03;35.03;;;-0.90;99.90;;;;;;5046343;27;20030;-51
2022/12/09 04:35:46;;;;;;;117.53;34.63;;;-0.90;99.90;;;;;;5047638;27;20379;-51
2022/12/09 04:38:12;;;;;;;159.85;34.53;;;-0.90;99.90;;;;;;5030239;28;20675;-53
2022/12/09 04:40:38;;;;;;;94.97;34.63;;;-0.90;99.90;;;;;;5044055;28;20638;-53
2022/12/09 04:43:09;;;;;;;93.85;32.88;;;-0.90;99.90;;;;;;5048822;28;20659;-51
2022/12/09 04:45:36;;;;;;;154.65;37.63;;;-0.90;99.90;;;;;;5047542;28;20024;-55
2022/12/09 04:48:02;;;;;;;149.40;36.47;;;-0.90;99.90;;;;;;5048961;28;20036;-52
2022/12/09 04:50:27;;;;;;;120.50;34.78;;;-0.90;99.90;;;;;;5042524;27;20029;-51
2022/12/09 04:52:53;;;;;;;157.05;34.25;;;-0.90;99.90;;;;;;5030310;28;20040;-54
2022/12/09 04:55:19;;;;;;;107.75;34.60;;;-0.90;99.90;;;;;;5040825;28;20021;-52
2022/12/09 04:57:44;;;;;;;195.80;38.80;;;-0.80;99.90;;;;;;5050218;28;20036;-55
2022/12/09 05:00:10;;;;;;;176.90;36.75;;;-0.90;99.90;;;;;;5048803;28;20025;-52
2022/12/09 05:02:36;;;;;;;98.57;33.85;;;-0.80;99.90;;;;;;5050164;28;20029;-51
2022/12/09 05:05:02;;;;;;;88.70;34.03;;;-0.80;99.90;;;;;;5045546;27;20024;-54
2022/12/09 05:07:30;;;;;;;150.35;33.35;;;-0.80;99.90;;;;;;5037143;28;20112;-53
2022/12/09 05:09:56;;;;;;;126.75;34.63;;;-0.80;99.90;;;;;;5049092;28;20086;-54
2022/12/09 05:12:23;;;;;;;126.28;34.88;;;-0.80;99.90;;;;;;5043022;27;20041;-56
2022/12/09 05:14:48;;;;;;;64.72;32.33;;;-0.80;99.90;;;;;;5030051;28;20037;-53
2022/12/09 05:17:14;;;;;;;84.63;34.42;;;-0.70;99.90;;;;;;5029990;28;20025;-56
2022/12/09 05:19:39;;;;;;;64.65;31.60;;;-0.80;99.90;;;;;;5028486;28;20519;-52
2022/12/09 05:22:05;;;;;;;92.90;33.40;;;-0.80;99.90;;;;;;5033889;28;20033;-53
2022/12/09 05:24:31;;;;;;;104.20;33.90;;;-0.80;99.90;;;;;;5049383;28;20021;-54
2022/12/09 05:26:57;;;;;;;77.38;32.67;;;-0.80;99.90;;;;;;5037532;28;20480;-53
2022/12/09 05:29:22;;;;;;;76.10;34.00;;;-0.80;99.90;;;;;;5049255;28;20151;-53
2022/12/09 05:31:50;;;;;;;67.25;33.70;;;-0.70;99.90;;;;;;5047689;28;20670;-53
2022/12/09 05:34:16;;;;;;;80.65;32.30;;;-0.70;99.90;;;;;;5029773;28;20029;-54
2022/12/09 05:36:42;;;;;;;69.03;33.38;;;-0.70;99.90;;;;;;5029684;28;20372;-53
2022/12/09 05:39:08;;;;;;;68.53;33.08;;;-0.70;99.90;;;;;;5037710;28;20616;-54
2022/12/09 05:41:34;;;;;;;71.10;32.25;;;-0.70;99.90;;;;;;5049418;28;20052;-52
2022/12/09 05:44:00;;;;;;;64.40;32.30;;;-0.60;99.90;;;;;;5031010;28;20109;-52
2022/12/09 05:46:25;;;;;;;67.95;31.83;;;-0.60;99.90;;;;;;5029681;28;20029;-51
2022/12/09 05:48:51;;;;;;;76.45;35.03;;;-0.50;99.90;;;;;;5029652;28;20112;-53
2022/12/09 05:51:27;;;;;;;60.28;31.30;;;-0.60;99.90;;;;;;5028085;28;20116;-53
2022/12/09 05:53:54;;;;;;;74.60;33.13;;;-0.50;99.90;;;;;;5046086;27;20029;-52
2022/12/09 05:56:21;;;;;;;67.03;32.25;;;-0.50;99.90;;;;;;5048394;28;20029;-53
2022/12/09 05:58:47;;;;;;;68.30;31.58;;;-0.50;99.90;;;;;;5048410;28;20115;-54
2022/12/09 06:01:13;;;;;;;72.13;31.92;;;-0.50;99.90;;;;;;5048465;27;20491;-51
2022/12/09 06:03:39;;;;;;;74.40;32.80;;;-0.50;99.90;;;;;;5031424;28;20380;-50
2022/12/09 06:06:12;;;;;;;76.07;34.08;;;-0.50;99.90;;;;;;5028167;28;20035;-59
2022/12/09 06:08:39;;;;;;;127.88;33.83;;;-0.50;99.90;;;;;;5036597;28;20033;-52
2022/12/09 06:11:16;;;;;;;92.85;34.38;;;-0.50;99.90;;;;;;5027273;28;20038;-59
2022/12/09 06:13:42;;;;;;;90.60;34.67;;;-0.50;99.90;;;;;;5030198;28;20105;-51
2022/12/09 06:16:09;;;;;;;80.25;33.03;;;-0.50;99.90;;;;;;5047662;27;20387;-56
2022/12/09 06:18:36;;;;;;;68.88;32.30;;;-0.50;99.90;;;;;;5045624;28;20039;-55
2022/12/09 06:21:09;;;;;;;107.65;35.53;;;-0.50;99.90;;;;;;5045398;28;20018;-56
2022/12/09 06:23:37;;;;;;;126.30;34.28;;;-0.50;99.90;;;;;;5047903;28;20029;-54
2022/12/09 06:26:03;;;;;;;121.65;40.05;;;-0.50;99.90;;;;;;5047566;27;20078;-54
2022/12/09 06:28:30;;;;;;;118.43;35.88;;;-0.50;99.90;;;;;;5048395;27;20031;-54
2022/12/09 06:30:58;;;;;;;99.50;36.15;;;-0.50;99.90;;;;;;5047561;27;20025;-51
2022/12/09 06:33:24;;;;;;;94.65;35.00;;;-0.40;99.90;;;;;;5047781;28;20095;-56
2022/12/09 06:35:49;;;;;;;78.13;33.58;;;-0.40;99.90;;;;;;5046075;27;20029;-55
2022/12/09 06:38:15;;;;;;;93.68;34.92;;;-0.40;99.90;;;;;;5047905;28;20438;-54
2022/12/09 06:40:41;;;;;;;124.18;36.75;;;-0.40;99.90;;;;;;5036716;28;20029;-57
2022/12/09 06:43:08;;;;;;;108.45;36.55;;;-0.40;99.90;;;;;;5037215;28;20025;-50
2022/12/09 06:45:37;;;;;;;103.80;37.70;;;-0.40;99.90;;;;;;5046246;27;20570;-51
2022/12/09 06:48:04;;;;;;;107.68;35.63;;;-0.40;99.90;;;;;;5047658;28;20033;-53
2022/12/09 06:50:30;;;;;;;84.35;38.47;;;-0.40;99.90;;;;;;5047887;28;20037;-53
2022/12/09 06:52:56;;;;;;;104.63;42.00;;;-0.30;99.90;;;;;;5038601;28;20037;-57
2022/12/09 06:55:22;;;;;;;90.55;39.78;;;-0.30;99.90;;;;;;5028131;28;20041;-55
2022/12/09 06:57:47;;;;;;;89.43;39.30;;;-0.30;99.90;;;;;;5028149;28;20044;-55
2022/12/09 07:00:13;;;;;;;95.55;41.22;;;-0.30;99.90;;;;;;5027709;28;20170;-55
2022/12/09 07:02:39;;;;;;;78.85;37.50;;;-0.30;99.90;;;;;;5032603;28;20025;-54
2022/12/09 07:05:05;;;;;;;82.70;38.63;;;-0.20;99.90;;;;;;5047411;28;20037;-52
2022/12/09 07:07:31;;;;;;;92.05;37.20;;;-0.20;99.90;;;;;;5049879;28;20025;-55
2022/12/09 07:09:57;;;;;;;76.82;34.92;;;-0.10;99.90;;;;;;5041144;28;20036;-54
2022/12/09 07:12:23;;;;;;;85.15;36.70;;;-0.10;99.90;;;;;;5047270;28;20045;-53
2022/12/09 07:14:49;;;;;;;71.43;33.60;;;-0.20;99.90;;;;;;5031259;28;20034;-55
2022/12/09 07:17:19;;;;;;;80.03;36.35;;;-0.20;99.90;;;;;;5031058;28;20029;-53
2022/12/09 07:19:45;;;;;;;65.63;32.78;;;-0.10;99.90;;;;;;5031076;28;20368;-53
2022/12/09 07:22:11;;;;;;;62.63;31.92;;;-0.10;99.90;;;;;;5032333;28;20021;-54
2022/12/09 07:24:38;;;;;;;77.97;36.35;;;0.00;99.90;;;;;;5045174;28;20041;-51
2022/12/09 07:27:08;;;;;;;67.20;33.42;;;-0.10;99.90;;;;;;5037434;27;20409;-53
2022/12/09 07:29:35;;;;;;;71.90;35.20;;;-0.10;99.90;;;;;;5049394;28;20121;-56
2022/12/09 07:32:01;;;;;;;58.70;32.40;;;-0.10;99.90;;;;;;5050295;27;20039;-56
2022/12/09 07:34:27;;;;;;;60.97;33.03;;;-0.10;99.90;;;;;;5050687;27;20031;-56
2022/12/09 07:36:53;;;;;;;63.78;33.10;;;0.00;99.90;;;;;;5046373;27;20699;-52
2022/12/09 07:39:20;;;;;;;60.95;31.25;;;0.00;99.90;;;;;;5034932;28;20057;-51
2022/12/09 07:41:52;;;;;;;54.33;29.13;;;0.00;99.90;;;;;;5032397;28;20065;-56
2022/12/09 07:44:18;;;;;;;64.47;32.42;;;0.10;99.90;;;;;;5033302;28;20034;-55
2022/12/09 07:46:44;;;;;;;61.08;31.15;;;0.10;99.90;;;;;;5033374;28;20061;-51
2022/12/09 07:49:10;;;;;;;61.88;31.23;;;0.10;99.90;;;;;;5050131;28;20522;-55
2022/12/09 07:51:36;;;;;;;63.90;32.88;;;0.10;99.90;;;;;;5045975;27;20127;-51
2022/12/09 07:54:02;;;;;;;59.00;33.45;;;0.20;99.90;;;;;;5029361;28;20426;-54
2022/12/09 07:56:28;;;;;;;58.10;32.40;;;0.20;99.90;;;;;;5037515;28;20025;-52
2022/12/09 07:58:55;;;;;;;62.05;34.00;;;0.10;99.90;;;;;;5050439;27;20384;-54
2022/12/09 08:01:24;;;;;;;61.00;32.20;;;0.20;99.90;;;;;;5050480;28;20025;-53
2022/12/09 08:03:50;;;;;;;57.78;32.42;;;0.20;99.90;;;;;;5050685;28;20428;-53
2022/12/09 08:06:19;;;;;;;64.22;33.50;;;0.30;99.90;;;;;;5050002;28;20104;-54
2022/12/09 08:08:45;;;;;;;68.60;34.22;;;0.40;99.90;;;;;;5050370;28;20555;-53
2022/12/09 08:11:13;;;;;;;65.05;33.38;;;0.30;99.90;;;;;;5050059;28;20376;-55
2022/12/09 08:13:40;;;;;;;60.13;33.17;;;0.30;99.90;;;;;;5049104;27;20088;-54
2022/12/09 08:16:08;;;;;;;57.83;32.75;;;0.40;99.90;;;;;;5049316;27;20025;-53
2022/12/09 08:18:35;;;;;;;62.03;33.72;;;0.40;99.90;;;;;;5048622;28;20457;-54
2022/12/09 08:21:25;;;;;;;58.80;31.70;;;0.40;99.90;;;;;;5048868;28;20077;-51
2022/12/09 08:23:51;;;;;;;67.22;33.63;;;0.40;99.90;;;;;;5049045;27;20018;-53
2022/12/09 08:26:21;;;;;;;62.20;30.48;;;0.40;99.90;;;;;;5036395;28;20041;-53
2022/12/09 08:28:47;;;;;;;64.40;33.28;;;0.50;99.90;;;;;;5029207;28;20029;-53
2022/12/09 08:31:18;;;;;;;60.08;33.35;;;0.50;99.90;;;;;;5029265;28;20033;-56
2022/12/09 08:33:44;;;;;;;59.05;32.25;;;0.50;99.90;;;;;;5032742;28;20034;-53
2022/12/09 08:36:16;;;;;;;51.78;31.95;;;0.60;99.90;;;;;;5040928;27;20037;-52
2022/12/09 08:38:42;;;;;;;55.70;33.13;;;0.60;99.90;;;;;;5036669;28;20170;-50
2022/12/09 08:41:33;;;;;;;56.60;32.13;;;0.60;99.90;;;;;;5048506;27;20021;-52
2022/12/09 08:44:10;;;;;;;57.55;31.50;;;0.60;99.90;;;;;;5047007;28;20116;-51
2022/12/09 08:46:37;;;;;;;57.20;33.42;;;0.70;99.90;;;;;;5048637;28;20388;-54
2022/12/09 08:49:04;;;;;;;57.08;31.88;;;0.70;99.90;;;;;;5044728;28;20045;-50
2022/12/09 08:51:30;;;;;;;50.63;31.35;;;0.70;99.90;;;;;;5028813;28;20037;-53
2022/12/09 08:53:57;;;;;;;53.78;32.15;;;0.70;99.90;;;;;;5041456;28;20041;-56
2022/12/09 08:56:22;;;;;;;56.10;32.97;;;0.70;99.90;;;;;;5039478;28;20047;-54
2022/12/09 08:58:48;;;;;;;58.33;32.33;;;0.70;99.90;;;;;;5042321;27;20429;-59
2022/12/09 09:01:15;;;;;;;53.25;31.50;;;0.80;99.90;;;;;;5082007;27;20033;-51
2022/12/09 09:03:41;;;;;;;62.72;34.15;;;0.80;99.90;;;;;;5149256;27;20029;-53
2022/12/09 09:06:07;;;;;;;61.67;34.47;;;0.80;99.90;;;;;;5138587;27;20022;-53
2022/12/09 09:08:33;;;;;;;65.10;33.67;;;0.80;99.90;;;;;;5106990;27;20026;-52
2022/12/09 09:10:59;;;;;;;61.70;32.22;;;0.80;99.90;;;;;;5031281;27;1139317;-55
2022/12/09 09:13:25;;;;;;;56.40;31.88;;;0.80;99.90;;;;;;5049356;27;20103;-56
2022/12/09 09:15:51;;;;;;;62.53;33.28;;;0.80;99.90;;;;;;5046991;28;20391;-58
2022/12/09 09:18:17;;;;;;;67.65;37.20;;;0.80;99.90;;;;;;5048853;28;20022;-54
2022/12/09 09:20:47;;;;;;;63.33;32.83;;;0.90;99.90;;;;;;5048502;28;20025;-56
2022/12/09 09:23:15;;;;;;;56.08;32.67;;;0.90;99.90;;;;;;5047589;28;20081;-54
2022/12/09 09:25:42;;;;;;;59.63;33.65;;;0.90;99.90;;;;;;5040340;28;20034;-55
2022/12/09 09:28:08;;;;;;;60.65;33.17;;;0.90;99.90;;;;;;5025793;28;20025;-52
2022/12/09 09:30:34;;;;;;;125.32;68.93;;;0.80;99.90;;;;;;5036130;28;20025;-54
2022/12/09 09:33:01;;;;;;;68.07;41.78;;;0.80;99.90;;;;;;5046036;28;20025;-51
2022/12/09 09:35:27;;;;;;;93.85;53.92;;;0.90;99.90;;;;;;5046190;28;20033;-54
2022/12/09 09:37:53;;;;;;;72.40;41.25;;;0.90;99.90;;;;;;5046081;28;20548;-54
2022/12/09 09:40:20;;;;;;;70.13;39.30;;;0.90;99.90;;;;;;5045743;27;20108;-50
2022/12/09 09:42:49;;;;;;;133.95;84.22;;;0.90;99.90;;;;;;5036231;28;20022;-55
2022/12/09 09:45:19;;;;;;;66.75;39.72;;;0.90;99.90;;;;;;5025995;28;20453;-53
2022/12/09 09:47:50;;;;;;;64.18;35.40;;;1.00;99.90;;;;;;5027794;28;20026;-52
2022/12/09 09:50:28;;;;;;;54.83;35.03;;;1.00;99.90;;;;;;5079592;27;20019;-53
2022/12/09 09:52:54;;;;;;;55.13;32.08;;;1.00;99.90;;;;;;5063124;27;20025;-54
2022/12/09 09:55:51;;;;;;;54.75;31.58;;;1.00;99.90;;;;;;5065731;27;20109;-53
2022/12/09 09:58:29;;;;;;;61.83;35.20;;;1.10;99.90;;;;;;5152145;27;20496;-54
2022/12/09 10:01:04;;;;;;;52.20;33.75;;;1.20;99.90;;;;;;5151914;27;20018;-50
2022/12/09 10:03:48;;;;;;;59.22;34.75;;;1.10;99.90;;;;;;5151962;27;20474;-57
2022/12/09 10:06:20;;;;;;;56.33;32.08;;;1.20;99.90;;;;;;5151909;27;20075;-51
2022/12/09 10:09:10;;;;;;;50.67;28.83;;;1.20;99.90;;;;;;5079218;27;20025;-53
2022/12/09 10:12:01;;;;;;;55.20;33.95;;;1.20;99.90;;;;;;5046959;28;20428;-51
2022/12/09 10:14:35;;;;;;;59.85;31.67;;;1.10;99.90;;;;;;5046867;28;20052;-50
2022/12/09 10:17:16;;;;;;;57.25;33.58;;;1.10;99.90;;;;;;5046874;28;20021;-54
2022/12/09 10:19:46;;;;;;;47.20;29.70;;;1.20;99.90;;;;;;5045486;28;20025;-54
2022/12/09 10:22:23;;;;;;;53.85;34.28;;;1.20;99.90;;;;;;5046487;28;20438;-53
2022/12/09 10:24:58;;;;;;;55.42;32.28;;;1.20;99.90;;;;;;5047156;27;20053;-56
2022/12/09 10:27:43;;;;;;;59.78;34.60;;;1.20;99.90;;;;;;5046893;28;20353;-50
2022/12/09 10:30:14;;;;;;;55.70;31.05;;;1.10;99.90;;;;;;5053309;27;20025;-53
2022/12/09 10:32:40;;;;;;;55.25;32.10;;;1.20;99.90;;;;;;5082587;27;20109;-53
2022/12/09 10:35:20;;;;;;;59.97;34.67;;;1.10;99.90;;;;;;5050070;27;20483;-52
2022/12/09 10:37:46;;;;;;;53.63;30.92;;;1.10;99.90;;;;;;5047461;27;20316;-53
2022/12/09 10:40:22;;;;;;;45.55;30.40;;;1.10;99.90;;;;;;5044486;27;20081;-53
2022/12/09 10:45:49;;;;;;;52.58;32.80;;;1.20;99.90;;;;;;5045552;28;20039;-53
2022/12/09 10:48:28;;;;;;;53.85;31.35;;;1.20;99.90;;;;;;5028284;28;20384;-51
2022/12/09 10:50:56;;;;;;;53.05;32.90;;;1.30;99.90;;;;;;5032790;28;20021;-55
2022/12/09 10:53:23;;;;;;;46.22;29.58;;;1.30;99.90;;;;;;5051933;27;20045;-56
2022/12/09 10:55:51;;;;;;;44.67;27.77;;;1.20;99.90;;;;;;5045574;28;20300;-53
2022/12/09 10:58:21;;;;;;;49.08;29.25;;;1.20;99.90;;;;;;5045615;27;20028;-53
2022/12/09 11:01:17;;;;;;;51.33;30.95;;;1.20;99.90;;;;;;5046876;27;20025;-55
2022/12/09 11:03:50;;;;;;;43.13;29.25;;;1.30;99.90;;;;;;5032816;27;20313;-54
2022/12/09 11:06:45;;;;;;;44.75;27.40;;;1.30;99.90;;;;;;5045504;27;20025;-52
2022/12/09 11:09:26;;;;;;;44.10;26.77;;;1.30;99.90;;;;;;5017438;28;20045;-53
2022/12/09 11:11:52;;;;;;;45.85;26.23;;;1.30;99.90;;;;;;5026404;28;20072;-53
2022/12/09 11:14:47;;;;;;;42.92;25.67;;;1.30;99.90;;;;;;5026420;28;20106;-50
2022/12/09 11:17:20;;;;;;;35.70;24.08;;;1.30;99.90;;;;;;5034301;27;20226;-53
2022/12/09 11:19:48;;;;;;;;;;;1.30;99.90;;;;;;5045129;28;20029;-56
2022/12/09 11:22:27;;;;;;;41.72;22.60;;;1.30;99.90;;;;;;5043319;27;19955;-51
2022/12/09 11:24:55;;;;;;;33.38;22.75;;;1.30;99.90;;;;;;5044621;27;20399;-51
2022/12/09 11:27:30;;;;;;;39.05;24.20;;;1.40;99.90;;;;;;5035576;28;20026;-51
2022/12/09 11:30:14;;;;;;;38.35;22.58;;;1.40;99.90;;;;;;5025660;28;20045;-51
2022/12/09 11:32:58;;;;;;;39.92;24.52;;;1.30;99.90;;;;;;5024502;28;20022;-52
2022/12/09 11:35:29;;;;;;;41.08;22.90;;;1.30;99.90;;;;;;5024541;28;20484;-51
2022/12/09 11:37:57;;;;;;;38.35;22.35;;;1.30;99.90;;;;;;5039442;28;20025;-55
2022/12/09 11:40:27;;;;;;;36.83;22.95;;;1.30;99.90;;;;;;5045859;28;20408;-57
2022/12/09 11:42:54;;;;;;;42.13;24.95;;;1.30;99.90;;;;;;5046629;28;20025;-57
2022/12/09 11:45:31;;;;;;;45.05;27.42;;;1.20;99.90;;;;;;5045806;28;20029;-56
2022/12/09 11:48:04;;;;;;;37.13;22.77;;;1.20;99.90;;;;;;5032118;28;20025;-54
2022/12/09 11:50:31;;;;;;;46.92;24.48;;;1.20;99.90;;;;;;5027497;28;20484;-54
2022/12/09 11:53:12;;;;;;;44.45;25.38;;;1.10;99.90;;;;;;5028702;28;20387;-56
2022/12/09 11:56:05;;;;;;;38.40;24.48;;;1.10;99.90;;;;;;5030412;28;20025;-55
2022/12/09 11:59:15;;;;;;;40.95;23.95;;;1.20;99.90;;;;;;5047193;28;20164;-55
2022/12/09 12:02:04;;;;;;;41.33;23.05;;;1.10;99.90;;;;;;5049551;27;20033;-58
2022/12/09 12:04:36;;;;;;;36.28;22.65;;;1.10;99.90;;;;;;5049322;28;20025;-55
2022/12/09 12:07:06;;;;;;;39.55;23.08;;;1.10;99.90;;;;;;5043512;28;20348;-57
2022/12/09 12:09:42;;;;;;;43.22;25.75;;;1.20;99.90;;;;;;5029476;28;20033;-54
2022/12/09 12:12:08;;;;;;;40.45;24.17;;;1.10;99.90;;;;;;5042770;28;20523;-56
2022/12/09 12:14:36;;;;;;;44.00;24.27;;;1.10;99.90;;;;;;5050369;27;20038;-55
2022/12/09 12:17:47;;;;;;;37.70;24.20;;;1.20;99.90;;;;;;5050100;28;20033;-55
2022/12/09 12:20:13;;;;;;;43.88;23.95;;;1.20;99.90;;;;;;5046351;28;20069;-56
2022/12/09 12:22:48;;;;;;;47.22;25.48;;;1.20;99.90;;;;;;5053397;27;20045;-56
2022/12/09 12:25:38;;;;;;;46.00;25.13;;;1.20;99.90;;;;;;5050023;27;20135;-54
2022/12/09 12:28:23;;;;;;;45.53;25.13;;;1.20;99.90;;;;;;5050025;27;20380;-61
2022/12/09 12:31:01;;;;;;;44.42;24.23;;;1.20;99.90;;;;;;5048622;28;20028;-58
2022/12/09 12:34:11;;;;;;;44.47;24.08;;;1.20;99.90;;;;;;5030436;28;20029;-57
2022/12/09 12:36:55;;;;;;;52.33;24.63;;;1.20;99.90;;;;;;4988157;28;20064;-57
2022/12/09 12:39:51;;;;;;;43.45;25.83;;;1.30;99.90;;;;;;4988662;28;20030;-57
2022/12/09 12:42:30;;;;;;;42.03;24.35;;;1.30;99.90;;;;;;5023402;28;20079;-57
2022/12/09 12:48:14;;;;;;;43.47;25.67;;;1.30;99.90;;;;;;5030000;28;20040;-58
2022/12/09 12:51:29;;;;;;;43.70;27.27;;;1.30;99.90;;;;;;5041455;27;20044;-55
2022/12/09 12:53:57;;;;;;;43.83;23.65;;;1.30;99.90;;;;;;5029838;28;20050;-58